Time;durP1;ratioP1;P1;durP2;ratioP2;P2;SDS_P1;SDS_P2;PMS_P1;PMS_P2;Temp;Humidity;BMP_temperature;BMP_pressure;BME280_temperature;BME280_humidity;BME280_pressure;Samples;Min_cycle;Max_cycle;Signal;HPM_P1;HPM_P2
2022/04/20 00:01:10;;;;;;;79.15;6.63;;;;;;;4.75;100.00;97789.91;5002985;28;20038;-59
2022/04/20 00:03:37;;;;;;;78.18;6.63;;;;;;;4.90;100.00;97793.88;5002812;28;20435;-59
2022/04/20 00:06:03;;;;;;;85.50;7.43;;;;;;;5.27;100.00;97793.06;5003158;28;20061;-59
2022/04/20 00:08:29;;;;;;;79.45;7.07;;;;;;;4.81;100.00;97795.75;5003520;28;20060;-58
2022/04/20 00:10:54;;;;;;;75.53;6.03;;;;;;;4.76;100.00;97789.88;5002133;28;20683;-58
2022/04/20 00:13:19;;;;;;;93.15;7.25;;;;;;;4.96;100.00;97786.00;5001789;28;20025;-58
2022/04/20 00:15:45;;;;;;;76.57;6.63;;;;;;;5.00;100.00;97785.06;5003323;28;20045;-59
2022/04/20 00:18:10;;;;;;;69.80;6.03;;;;;;;5.00;100.00;97790.22;5003529;28;20025;-59
2022/04/20 00:20:35;;;;;;;70.60;6.32;;;;;;;5.08;100.00;97798.66;5002560;28;20052;-59
2022/04/20 00:23:01;;;;;;;78.43;7.03;;;;;;;5.11;100.00;97793.44;5004338;28;20050;-59
2022/04/20 00:25:26;;;;;;;83.88;6.82;;;;;;;5.11;100.00;97798.59;5003280;28;20046;-59
2022/04/20 00:27:51;;;;;;;61.20;5.78;;;;;;;5.00;100.00;97793.66;5003873;28;20036;-57
2022/04/20 00:30:17;;;;;;;84.95;6.43;;;;;;;5.07;100.00;97791.75;5004130;28;20034;-58
2022/04/20 00:32:42;;;;;;;80.40;5.80;;;;;;;5.11;100.00;97793.44;5005379;28;20022;-59
2022/04/20 00:35:10;;;;;;;64.28;5.45;;;;;;;4.80;100.00;97794.09;5005749;28;20025;-56
2022/04/20 00:37:36;;;;;;;83.40;7.35;;;;;;;4.88;100.00;97795.66;5004133;28;20053;-57
2022/04/20 00:40:03;;;;;;;87.88;6.80;;;;;;;5.08;100.00;97797.81;5003833;28;20034;-57
2022/04/20 00:42:29;;;;;;;71.45;6.30;;;;;;;4.92;100.00;97797.28;5002860;28;20326;-59
2022/04/20 00:44:55;;;;;;;99.65;7.20;;;;;;;5.22;100.00;97793.19;5001894;28;20084;-56
2022/04/20 00:47:22;;;;;;;68.18;6.43;;;;;;;4.56;100.00;97800.63;5000817;28;20152;-59
2022/04/20 00:49:47;;;;;;;63.22;5.32;;;;;;;4.73;100.00;97792.50;5000432;28;20026;-58
2022/04/20 00:52:13;;;;;;;68.30;5.88;;;;;;;5.04;100.00;97797.03;5003570;28;20645;-58
2022/04/20 00:54:39;;;;;;;69.55;5.85;;;;;;;4.78;100.00;97800.19;5002966;28;20060;-59
2022/04/20 00:57:05;;;;;;;57.72;6.10;;;;;;;4.73;100.00;97792.50;5001126;28;20070;-58
2022/04/20 00:59:31;;;;;;;80.10;6.95;;;;;;;4.83;100.00;97787.97;5003177;28;20088;-59
2022/04/20 01:01:57;;;;;;;72.32;6.55;;;;;;;4.49;100.00;97782.69;5002829;28;20069;-58
2022/04/20 01:04:22;;;;;;;85.72;7.68;;;;;;;4.14;100.00;97786.81;5002127;28;20042;-57
2022/04/20 01:06:49;;;;;;;82.68;7.07;;;;;;;4.55;100.00;97780.81;5002879;28;20045;-57
2022/04/20 01:09:15;;;;;;;74.57;7.15;;;;;;;3.78;100.00;97781.41;4999845;28;20026;-58
2022/04/20 01:11:41;;;;;;;87.22;7.22;;;;;;;4.21;100.00;97785.81;4998710;28;20038;-60
2022/04/20 01:14:07;;;;;;;70.78;6.07;;;;;;;3.71;100.00;97787.56;4997783;28;20076;-58
2022/04/20 01:16:32;;;;;;;68.35;5.93;;;;;;;4.18;100.00;97788.44;5000333;28;20043;-59
2022/04/20 01:18:57;;;;;;;85.43;7.70;;;;;;;3.78;100.00;97789.16;4999301;28;20484;-58
2022/04/20 01:21:24;;;;;;;77.75;6.57;;;;;;;4.05;100.00;97791.25;5000167;28;20067;-58
2022/04/20 01:23:50;;;;;;;97.85;7.88;;;;;;;3.71;100.00;97792.72;4999222;28;20772;-59
2022/04/20 01:26:15;;;;;;;94.95;7.15;;;;;;;4.14;100.00;97794.56;5000542;28;20091;-59
2022/04/20 01:28:44;;;;;;;72.22;5.95;;;;;;;4.39;100.00;97798.38;5003054;28;20097;-57
2022/04/20 01:31:13;;;;;;;84.03;7.10;;;;;;;4.32;100.00;97791.63;5000547;28;20041;-56
2022/04/20 01:33:38;;;;;;;67.43;6.60;;;;;;;4.01;100.00;97797.34;5001101;28;20026;-58
2022/04/20 01:36:04;;;;;;;80.85;6.57;;;;;;;4.01;100.00;97802.50;5001403;28;20141;-59
2022/04/20 01:38:29;;;;;;;65.10;6.10;;;;;;;3.95;100.00;97804.34;4985621;28;20510;-57
2022/04/20 01:40:55;;;;;;;83.78;7.05;;;;;;;4.26;100.00;97807.19;4999687;28;20393;-58
2022/04/20 01:43:20;;;;;;;81.75;7.13;;;;;;;3.90;100.00;97799.28;5000181;28;20029;-58
2022/04/20 01:45:45;;;;;;;86.60;7.13;;;;;;;3.91;100.00;97798.38;5003209;28;20038;-57
2022/04/20 01:48:11;;;;;;;84.75;7.00;;;;;;;4.03;100.00;97794.75;5002809;28;20029;-57
2022/04/20 01:51:46;;;;;;;74.95;6.85;;;;;;;4.14;100.00;97799.72;4999711;28;20042;-57
2022/04/20 01:53:21;;;;;;;88.13;6.97;;;;;;;4.18;100.00;97794.44;5002074;28;20661;-59
2022/04/20 01:55:47;;;;;;;70.15;5.88;;;;;;;4.29;100.00;97794.25;5002085;28;20042;-56
2022/04/20 01:58:12;;;;;;;82.25;6.47;;;;;;;4.33;100.00;97793.31;4999975;28;20041;-58
2022/04/20 02:00:37;;;;;;;83.88;7.18;;;;;;;3.96;100.00;97788.81;5001760;28;20041;-57
2022/04/20 02:03:03;;;;;;;81.45;6.25;;;;;;;4.33;100.00;97793.31;5001104;28;20084;-57
2022/04/20 02:05:28;;;;;;;87.75;7.22;;;;;;;3.74;100.00;97797.81;4999867;28;20037;-58
2022/04/20 02:07:55;;;;;;;87.82;7.97;;;;;;;3.80;100.00;97792.56;4999477;28;20026;-58
2022/04/20 02:10:21;;;;;;;75.70;6.68;;;;;;;4.03;100.00;97800.75;5001637;28;20080;-57
2022/04/20 02:12:46;;;;;;;68.15;5.60;;;;;;;4.40;100.00;97794.03;5003605;28;20026;-57
2022/04/20 02:15:11;;;;;;;73.80;5.72;;;;;;;5.34;100.00;97804.97;5001316;28;20049;-58
2022/04/20 02:17:37;;;;;;;84.55;6.05;;;;;;;5.29;100.00;97802.47;5001057;28;20068;-59
2022/04/20 02:20:02;;;;;;;77.70;5.57;;;;;;;5.22;100.00;97808.69;5002065;28;20092;-57
2022/04/20 02:22:28;;;;;;;93.38;6.32;;;;;;;5.77;100.00;97807.38;5001477;28;20050;-56
2022/04/20 02:24:53;;;;;;;96.70;8.50;;;;;;;3.58;100.00;97804.94;5006072;28;20059;-56
2022/04/20 02:27:19;;;;;;;66.53;5.60;;;;;;;3.95;100.00;97800.03;5006376;28;20099;-56
2022/04/20 02:29:44;;;;;;;71.57;5.80;;;;;;;5.37;100.00;97804.91;5006289;28;20372;-55
2022/04/20 02:32:09;;;;;;;72.78;6.55;;;;;;;4.03;100.00;97795.59;5003192;28;20042;-56
2022/04/20 02:34:35;;;;;;;90.50;7.57;;;;;;;3.27;100.00;97797.69;5004836;28;20029;-57
2022/04/20 02:37:00;;;;;;;87.72;7.40;;;;;;;3.32;100.00;97789.91;5003779;28;20119;-57
2022/04/20 02:39:26;;;;;;;76.30;5.57;;;;;;;3.99;100.00;97795.69;5004963;28;20478;-57
2022/04/20 02:41:52;;;;;;;82.60;6.97;;;;;;;3.87;100.00;97799.31;5003843;28;20096;-56
2022/04/20 02:44:17;;;;;;;75.20;6.18;;;;;;;4.07;100.00;97805.88;5005272;28;20060;-57
2022/04/20 02:46:43;;;;;;;83.65;6.43;;;;;;;4.56;100.00;97805.78;5005995;28;20109;-56
2022/04/20 02:49:09;;;;;;;75.82;7.38;;;;;;;3.92;100.00;97797.50;5005129;28;20104;-57
2022/04/20 02:51:34;;;;;;;84.50;7.35;;;;;;;3.72;100.00;97799.59;5003641;28;20501;-58
2022/04/20 02:53:59;;;;;;;75.05;7.35;;;;;;;3.50;100.00;97805.09;5003388;28;20447;-59
2022/04/20 02:56:25;;;;;;;70.68;6.03;;;;;;;3.74;100.00;97803.81;5005368;28;20045;-57
2022/04/20 02:58:50;;;;;;;78.28;5.68;;;;;;;4.24;100.00;97804.66;5002161;28;20038;-59
2022/04/20 03:01:15;;;;;;;78.05;6.93;;;;;;;3.65;100.00;97794.50;5000917;28;20038;-57
2022/04/20 03:03:41;;;;;;;83.55;6.40;;;;;;;3.67;100.00;97797.91;5003547;28;20026;-57
2022/04/20 03:06:06;;;;;;;77.97;6.32;;;;;;;4.03;100.00;97798.16;5004244;28;20041;-58
2022/04/20 03:08:31;;;;;;;61.47;5.03;;;;;;;4.86;100.00;97813.78;5004366;28;20447;-58
2022/04/20 03:10:56;;;;;;;78.95;6.47;;;;;;;4.25;100.00;97801.19;5003914;28;20033;-59
2022/04/20 03:13:22;;;;;;;81.82;7.10;;;;;;;3.11;100.00;97801.38;5004616;28;20065;-58
2022/04/20 03:15:47;;;;;;;76.55;7.25;;;;;;;3.65;100.00;97801.41;5005787;28;20403;-58
2022/04/20 03:18:12;;;;;;;74.47;6.47;;;;;;;3.44;100.00;97800.03;5004614;28;20034;-58
2022/04/20 03:20:38;;;;;;;76.63;7.32;;;;;;;2.97;100.00;97810.16;5000691;28;20041;-57
2022/04/20 03:23:04;;;;;;;102.97;7.43;;;;;;;3.13;100.00;97821.09;5005345;28;20029;-58
2022/04/20 03:25:29;;;;;;;89.32;7.80;;;;;;;2.77;100.00;97814.72;5003482;28;20085;-58
2022/04/20 03:27:55;;;;;;;79.95;7.22;;;;;;;3.27;100.00;97811.44;5005127;28;20137;-56
2022/04/20 03:30:20;;;;;;;84.45;7.57;;;;;;;3.09;100.00;97806.56;5004656;28;20063;-57
2022/04/20 03:32:46;;;;;;;63.63;6.45;;;;;;;2.94;100.00;97804.19;5003876;28;20057;-56
2022/04/20 03:35:11;;;;;;;88.70;7.40;;;;;;;3.05;100.00;97802.31;5002727;28;20040;-58
2022/04/20 03:37:37;;;;;;;88.00;7.90;;;;;;;2.10;100.00;97805.19;5003553;28;20030;-57
2022/04/20 03:40:04;;;;;;;85.65;8.20;;;;;;;2.22;100.00;97818.78;5006144;28;20405;-58
2022/04/20 03:42:29;;;;;;;64.03;5.80;;;;;;;2.95;100.00;97811.06;5004131;28;20062;-57
2022/04/20 03:44:54;;;;;;;102.78;7.47;;;;;;;3.26;100.00;97802.00;5004627;28;20141;-58
2022/04/20 03:47:20;;;;;;;69.60;6.88;;;;;;;2.56;100.00;97808.13;5002501;28;21094;-57
2022/04/20 03:49:45;;;;;;;92.57;8.48;;;;;;;2.51;100.00;97814.16;5003900;28;20033;-58
2022/04/20 03:52:10;;;;;;;73.00;6.07;;;;;;;2.92;100.00;97809.34;5002854;28;20048;-58
2022/04/20 03:54:36;;;;;;;86.32;7.28;;;;;;;3.18;100.00;97798.69;5002683;28;20036;-58
2022/04/20 03:57:04;;;;;;;95.00;8.23;;;;;;;2.62;100.00;97805.47;5002940;28;20600;-58
2022/04/20 03:59:33;;;;;;;77.50;6.85;;;;;;;2.97;100.00;97820.44;5005054;28;20042;-58
2022/04/20 04:02:02;;;;;;;69.00;6.43;;;;;;;3.12;100.00;97819.38;4999337;28;20033;-58
2022/04/20 04:04:27;;;;;;;81.05;6.80;;;;;;;2.96;100.00;97812.75;5003142;28;20109;-57
2022/04/20 04:06:53;;;;;;;78.85;7.70;;;;;;;2.48;100.00;97819.34;5003551;28;20187;-59
2022/04/20 04:09:19;;;;;;;69.00;6.30;;;;;;;3.19;100.00;97821.00;5004356;28;20029;-59
2022/04/20 04:11:44;;;;;;;82.35;5.85;;;;;;;3.83;100.00;97813.16;5004386;28;20538;-55
2022/04/20 04:14:09;;;;;;;70.47;5.38;;;;;;;4.15;100.00;97820.31;5003768;28;20997;-58
2022/04/20 04:16:36;;;;;;;91.85;7.00;;;;;;;3.82;100.00;97811.44;5001615;28;20034;-57
2022/04/20 04:19:03;;;;;;;95.20;8.15;;;;;;;3.44;100.00;97805.19;5002627;28;20026;-57
2022/04/20 04:21:29;;;;;;;72.00;8.20;;;;;;;2.98;100.00;97817.00;5000781;28;20064;-58
2022/04/20 04:23:54;;;;;;;74.15;8.00;;;;;;;2.55;100.00;97821.84;5000912;28;20083;-56
2022/04/20 04:26:19;;;;;;;73.90;7.65;;;;;;;3.43;100.00;97819.78;4998739;28;20769;-57
2022/04/20 04:28:45;;;;;;;87.68;7.90;;;;;;;3.76;100.00;97822.72;5002525;28;20025;-57
2022/04/20 04:31:10;;;;;;;80.90;7.30;;;;;;;4.29;100.00;97822.66;5006106;28;20080;-59
2022/04/20 04:33:35;;;;;;;81.75;6.47;;;;;;;4.21;100.00;97830.53;5004030;28;20033;-57
2022/04/20 04:36:01;;;;;;;75.78;7.28;;;;;;;3.98;100.00;97836.09;5002096;28;20092;-57
2022/04/20 04:38:26;;;;;;;66.05;6.90;;;;;;;3.34;100.00;97826.81;5002410;28;20882;-55
2022/04/20 04:40:52;;;;;;;85.80;8.02;;;;;;;2.72;100.00;97837.97;5001090;28;20037;-56
2022/04/20 04:43:18;;;;;;;64.15;6.75;;;;;;;2.96;100.00;97834.22;5000256;28;20024;-55
2022/04/20 04:48:36;;;;;;;71.22;7.18;;;;;;;2.84;100.00;97834.38;4999700;28;20036;-55
2022/04/20 04:51:02;;;;;;;96.43;7.82;;;;;;;2.85;100.00;97831.78;5001758;28;20030;-56
2022/04/20 04:53:28;;;;;;;81.03;7.90;;;;;;;2.99;100.00;97823.84;5002080;28;20622;-59
2022/04/20 04:55:54;;;;;;;83.97;7.95;;;;;;;3.93;100.00;97826.75;5004197;28;20046;-57
2022/04/20 04:58:19;;;;;;;78.90;7.32;;;;;;;4.31;100.00;97830.38;5003163;28;20516;-54
2022/04/20 05:00:44;;;;;;;81.05;7.93;;;;;;;5.35;100.00;97833.41;5000483;28;20045;-57
2022/04/20 05:03:09;;;;;;;74.15;7.53;;;;;;;5.27;100.00;97826.69;5002172;28;20029;-57
2022/04/20 05:05:35;;;;;;;84.50;7.18;;;;;;;7.22;100.00;97823.31;5001089;28;20099;-59
2022/04/20 05:08:00;;;;;;;91.32;8.25;;;;;;;6.73;100.00;97823.88;5000986;28;20037;-57
2022/04/20 05:10:26;;;;;;;82.40;8.02;;;;;;;7.88;100.00;97816.03;5001321;28;20056;-59
2022/04/20 05:12:51;;;;;;;88.72;8.02;;;;;;;8.17;100.00;97822.00;5003434;28;20022;-58
2022/04/20 05:15:16;;;;;;;95.13;8.57;;;;;;;8.17;100.00;97822.00;5004421;28;20640;-57
2022/04/20 05:17:42;;;;;;;67.38;7.10;;;;;;;7.97;100.00;97814.88;5005278;28;20565;-57
2022/04/20 05:20:08;;;;;;;72.45;7.60;;;;;;;8.96;100.00;97820.94;5000410;28;20057;-58
2022/04/20 05:22:33;;;;;;;76.55;7.38;;;;;;;8.85;100.00;97815.28;5001250;28;20026;-57
2022/04/20 05:24:58;;;;;;;73.10;7.65;;;;;;;9.13;92.36;97814.25;4999671;28;20034;-57
2022/04/20 05:27:24;;;;;;;87.65;8.75;;;;;;;8.57;99.16;97811.09;4999208;28;20104;-56
2022/04/20 05:29:49;;;;;;;83.25;8.20;;;;;;;9.04;99.73;97811.13;5003687;28;20356;-56
2022/04/20 05:32:14;;;;;;;60.88;7.18;;;;;;;9.92;87.30;97817.22;5001306;28;20042;-58
2022/04/20 05:34:41;;;;;;;82.78;8.38;;;;;;;9.69;80.56;97812.97;5000628;28;20036;-58
2022/04/20 05:42:34;;;;;;;75.78;8.20;;;;;;;13.95;59.29;97807.91;4984551;28;20057;-56
2022/04/20 05:44:59;;;;;;;76.38;7.88;;;;;;;12.88;57.43;97806.81;4985940;28;20042;-57
2022/04/20 05:47:24;;;;;;;72.15;7.63;;;;;;;14.77;53.57;97809.19;4999923;28;20041;-58
2022/04/20 05:49:50;;;;;;;65.57;7.15;;;;;;;15.72;50.07;97798.88;5001529;28;20485;-58
2022/04/20 05:52:15;;;;;;;80.22;7.70;;;;;;;13.82;51.23;97810.38;5000297;28;20406;-59
2022/04/20 05:54:40;;;;;;;77.85;7.82;;;;;;;13.96;54.11;97806.94;5001998;28;20037;-57
2022/04/20 05:57:06;;;;;;;69.50;7.28;;;;;;;16.14;47.96;97799.66;5001627;28;20506;-58
2022/04/20 05:59:31;;;;;;;67.53;7.03;;;;;;;17.02;45.71;97804.19;5003116;28;20710;-58
2022/04/20 06:01:56;;;;;;;61.15;7.00;;;;;;;15.00;46.29;97809.56;4998884;28;20042;-57
2022/04/20 06:04:23;;;;;;;69.18;7.22;;;;;;;15.52;47.50;97798.38;5000198;28;20112;-59
2022/04/20 06:06:49;;;;;;;80.10;8.10;;;;;;;18.81;41.78;97802.50;4999650;28;20042;-59
2022/04/20 06:09:14;;;;;;;60.50;6.82;;;;;;;13.81;48.23;97813.09;5002066;28;20029;-57
2022/04/20 06:11:40;;;;;;;65.80;7.07;;;;;;;16.45;45.49;97802.84;5000138;28;20046;-59
2022/04/20 06:14:06;;;;;;;58.28;6.68;;;;;;;16.32;44.88;97798.41;4997566;28;20410;-59
2022/04/20 06:16:31;;;;;;;52.10;6.45;;;;;;;15.38;45.95;97798.41;4999492;28;20745;-58
2022/04/20 06:18:56;;;;;;;74.47;7.68;;;;;;;17.05;44.30;97794.28;4999472;28;20388;-58
2022/04/20 06:21:22;;;;;;;55.63;6.57;;;;;;;14.10;46.10;97794.81;5000183;28;20054;-57
2022/04/20 06:23:47;;;;;;;67.47;7.40;;;;;;;17.85;44.98;97799.13;5002193;28;20442;-57
2022/04/20 06:26:13;;;;;;;63.83;6.88;;;;;;;18.02;41.69;97799.66;5003407;28;20034;-59
2022/04/20 06:28:38;;;;;;;73.25;7.53;;;;;;;14.70;46.83;97797.38;5002352;28;20162;-57
2022/04/20 06:31:04;;;;;;;68.30;7.13;;;;;;;17.19;43.93;97800.41;5001629;28;20041;-58
2022/04/20 06:33:30;;;;;;;55.20;6.00;;;;;;;17.97;45.60;97801.78;5003103;28;20022;-57
2022/04/20 06:35:57;;;;;;;67.70;6.97;;;;;;;15.41;47.57;97793.81;4999536;28;20438;-60
2022/04/20 06:38:22;;;;;;;65.30;6.90;;;;;;;15.59;45.38;97794.41;4999847;28;20646;-59
2022/04/20 06:40:48;;;;;;;58.15;6.60;;;;;;;17.69;41.99;97798.53;4998831;28;20128;-58
2022/04/20 06:43:14;;;;;;;64.72;7.15;;;;;;;14.44;45.18;97802.38;4999845;28;20049;-57
2022/04/20 06:45:40;;;;;;;62.78;7.30;;;;;;;15.46;45.43;97796.16;5001074;28;20038;-59
2022/04/20 06:48:05;;;;;;;73.15;7.53;;;;;;;16.41;44.79;97804.81;4999836;28;20037;-58
2022/04/20 06:50:30;;;;;;;63.97;6.80;;;;;;;18.81;40.81;97799.84;4999702;28;20127;-57
2022/04/20 06:58:32;;;;;;;60.95;6.88;;;;;;;20.49;34.65;97789.75;5001360;28;20135;-58
2022/04/20 07:00:59;;;;;;;65.95;6.75;;;;;;;21.66;34.49;97787.56;5002271;28;20137;-58
2022/04/20 07:03:24;;;;;;;57.13;6.68;;;;;;;23.29;32.98;97790.25;4999158;28;20038;-59
2022/04/20 07:05:49;;;;;;;66.50;7.25;;;;;;;23.66;31.56;97773.34;5001126;28;20100;-58
2022/04/20 07:08:15;;;;;;;68.88;7.10;;;;;;;21.55;34.51;97785.06;5001218;28;20065;-58
2022/04/20 07:10:40;;;;;;;56.33;6.63;;;;;;;20.67;34.90;97786.53;5002782;28;20041;-61
2022/04/20 07:13:05;;;;;;;62.22;6.88;;;;;;;19.18;35.82;97779.28;5004289;28;20068;-59
2022/04/20 07:15:31;;;;;;;57.63;6.45;;;;;;;19.04;36.58;97780.41;5004205;28;20061;-58
2022/04/20 07:17:56;;;;;;;55.03;6.40;;;;;;;21.24;33.94;97782.44;5004274;28;20587;-56
2022/04/20 07:20:21;;;;;;;69.15;7.30;;;;;;;22.49;33.01;97782.66;5004264;28;20113;-58
2022/04/20 07:22:51;;;;;;;57.83;6.72;;;;;;;24.95;30.78;97775.53;5003943;28;20034;-59
2022/04/20 07:25:17;;;;;;;70.60;7.40;;;;;;;22.32;31.83;97783.41;4993263;28;20097;-59
2022/04/20 07:27:45;;;;;;;57.47;6.70;;;;;;;22.12;32.63;97778.06;5005839;28;20085;-58
2022/04/20 07:30:11;;;;;;;50.22;6.40;;;;;;;22.96;31.42;97776.50;5002767;28;20403;-60
2022/04/20 07:32:36;;;;;;;60.22;7.05;;;;;;;23.66;31.12;97776.84;5003948;28;20025;-60
2022/04/20 07:35:02;;;;;;;60.42;6.85;;;;;;;20.03;34.68;97780.38;5003634;28;20167;-59
2022/04/20 07:37:27;;;;;;;57.13;6.75;;;;;;;21.71;32.61;97774.75;5004358;28;20034;-58
2022/04/20 07:39:52;;;;;;;47.00;6.13;;;;;;;21.49;32.18;97769.69;5003877;28;20156;-59
2022/04/20 07:42:20;;;;;;;56.78;6.80;;;;;;;23.68;30.76;97764.19;5003570;28;20042;-58
2022/04/20 07:44:46;;;;;;;79.80;7.95;;;;;;;26.03;28.44;97770.34;5001246;28;20424;-60
2022/04/20 07:47:11;;;;;;;60.97;6.85;;;;;;;25.77;28.09;97751.78;5001454;28;20046;-58
2022/04/20 07:52:20;;;;;;;52.10;5.95;;;;;;;23.89;28.72;97756.94;5005670;28;20041;-58
2022/04/20 07:54:46;;;;;;;79.70;7.93;;;;;;;22.23;29.83;97762.97;5002848;28;20030;-61
2022/04/20 07:57:15;;;;;;;56.90;6.25;;;;;;;21.46;29.16;97764.66;5003282;28;20517;-59
2022/04/20 07:59:41;;;;;;;63.33;6.63;;;;;;;21.79;29.67;97766.06;5005778;28;20060;-60
2022/04/20 08:02:08;;;;;;;59.28;6.63;;;;;;;21.04;31.93;97765.63;5002683;28;20153;-59
2022/04/20 08:04:33;;;;;;;56.67;6.47;;;;;;;24.88;26.91;97761.16;5004491;28;20026;-59
2022/04/20 08:06:58;;;;;;;64.57;6.85;;;;;;;20.92;31.17;97762.25;5003437;28;20327;-59
2022/04/20 08:09:24;;;;;;;51.47;6.05;;;;;;;21.71;29.54;97763.28;5002636;28;20034;-59
2022/04/20 08:11:50;;;;;;;71.05;6.90;;;;;;;24.02;27.08;97763.56;5002703;28;20123;-59
2022/04/20 08:14:16;;;;;;;46.85;5.70;;;;;;;19.73;29.93;97760.78;5000997;28;20637;-61
2022/04/20 08:16:43;;;;;;;65.70;6.80;;;;;;;23.18;26.89;97762.03;5003033;28;20038;-59
2022/04/20 08:19:08;;;;;;;66.93;6.97;;;;;;;23.88;27.55;97761.44;5002974;28;20535;-59
2022/04/20 08:21:34;;;;;;;63.65;6.40;;;;;;;21.86;28.76;97769.03;5003008;28;20112;-61
2022/04/20 08:23:59;;;;;;;67.85;7.13;;;;;;;21.19;30.30;97766.09;5005011;28;20444;-59
2022/04/20 08:26:24;;;;;;;57.75;6.35;;;;;;;21.60;29.70;97756.28;5002864;28;20064;-59
2022/04/20 08:28:50;;;;;;;66.60;6.93;;;;;;;20.18;30.97;97752.63;5001951;28;20029;-57
2022/04/20 08:31:15;;;;;;;71.40;7.18;;;;;;;20.24;31.02;97751.28;5002048;28;20557;-58
2022/04/20 08:33:44;;;;;;;51.63;5.68;;;;;;;23.45;27.70;97744.34;5003218;28;20034;-58
2022/04/20 08:36:12;;;;;;;49.92;6.00;;;;;;;22.74;27.39;97743.16;5002703;28;20038;-56
2022/04/20 08:38:38;;;;;;;58.42;5.93;;;;;;;22.12;30.08;97743.56;5002683;28;20068;-57
2022/04/20 08:41:05;;;;;;;57.08;6.05;;;;;;;19.90;31.82;97740.03;5002925;28;20583;-56
2022/04/20 08:43:31;;;;;;;58.28;6.15;;;;;;;20.80;30.61;97750.06;5002682;28;20022;-57
2022/04/20 08:45:59;;;;;;;56.08;6.07;;;;;;;20.92;28.36;97750.81;5001912;28;20033;-57
2022/04/20 08:48:25;;;;;;;52.42;5.53;;;;;;;23.51;25.90;97743.75;5002355;28;20026;-57
2022/04/20 08:50:53;;;;;;;48.22;5.60;;;;;;;20.60;27.23;97741.13;5003060;28;20049;-59
2022/04/20 08:53:20;;;;;;;58.53;6.38;;;;;;;22.50;25.16;97739.16;5004002;28;20038;-58
2022/04/20 08:55:46;;;;;;;77.03;7.15;;;;;;;22.66;27.38;97743.03;4998897;28;20053;-59
2022/04/20 08:58:11;;;;;;;52.25;5.43;;;;;;;23.01;27.38;97736.16;4999548;28;20037;-58
2022/04/20 09:00:37;;;;;;;40.53;5.07;;;;;;;20.29;26.75;97743.78;5002747;28;20208;-58
2022/04/20 09:03:03;;;;;;;53.90;5.60;;;;;;;20.98;25.64;97735.19;5002810;28;20037;-59
2022/04/20 09:05:30;;;;;;;48.88;5.57;;;;;;;22.54;24.19;97730.91;5000598;28;20030;-57
2022/04/20 09:07:57;;;;;;;52.40;5.72;;;;;;;24.35;24.98;97720.31;5002965;28;20615;-59
2022/04/20 09:10:22;;;;;;;60.40;6.05;;;;;;;22.42;23.80;97724.94;4998130;28;20480;-60
2022/04/20 09:13:08;;;;;;;59.63;5.63;;;;;;;22.02;24.11;97717.97;5000394;28;20021;-61
2022/04/20 09:15:35;;;;;;;61.78;6.22;;;;;;;24.67;22.90;97725.03;5002335;28;20034;-60
2022/04/20 09:18:05;;;;;;;47.90;5.50;;;;;;;21.02;26.76;97727.81;5002465;28;20047;-59
2022/04/20 09:20:32;;;;;;;37.97;4.70;;;;;;;20.75;26.97;97728.41;4998698;28;20114;-61
2022/04/20 09:23:07;;;;;;;60.80;6.30;;;;;;;20.52;26.23;97728.56;5004072;28;20032;-59
2022/04/20 09:25:34;;;;;;;53.00;5.45;;;;;;;23.34;24.52;97715.28;5002051;28;20037;-56
2022/04/20 09:28:01;;;;;;;58.17;6.00;;;;;;;23.21;23.94;97712.97;5000913;28;20123;-57
2022/04/20 09:30:33;;;;;;;56.28;5.85;;;;;;;20.87;26.44;97715.91;5000471;28;20048;-58
2022/04/20 09:32:58;;;;;;;63.85;6.13;;;;;;;22.61;25.54;97708.09;5004820;28;20029;-57
2022/04/20 09:35:24;;;;;;;49.03;5.63;;;;;;;20.59;26.76;97710.34;5000172;28;20072;-57
2022/04/20 09:38:04;;;;;;;69.70;6.82;;;;;;;20.21;26.92;97696.75;5002980;28;20033;-58
2022/04/20 09:40:34;;;;;;;66.88;6.68;;;;;;;21.69;26.52;97694.41;5001501;28;20480;-56
2022/04/20 09:43:03;;;;;;;73.15;7.13;;;;;;;21.93;26.22;97703.75;5002430;28;20022;-56
2022/04/20 09:45:29;;;;;;;67.72;6.68;;;;;;;23.70;24.33;97699.31;5003064;28;20567;-56
2022/04/20 09:50:39;;;;;;;60.75;6.30;;;;;;;22.60;25.07;97695.78;5002136;28;20070;-57
2022/04/20 09:53:07;;;;;;;67.32;6.38;;;;;;;22.39;26.68;97694.19;5002404;28;20021;-57
2022/04/20 09:55:36;;;;;;;72.03;6.80;;;;;;;21.82;26.89;97699.44;5000260;28;20092;-56
2022/04/20 09:58:20;;;;;;;55.25;6.10;;;;;;;19.52;26.85;97691.06;5001298;28;20361;-58
2022/04/20 10:00:51;;;;;;;67.00;6.68;;;;;;;21.40;25.77;97701.50;4998533;28;20048;-58
2022/04/20 10:03:24;;;;;;;55.60;5.57;;;;;;;22.96;24.62;97685.25;5002812;28;20035;-58
2022/04/20 10:05:50;;;;;;;62.88;6.10;;;;;;;22.30;25.45;97692.38;5002619;28;20038;-58
2022/04/20 10:08:17;;;;;;;69.25;6.57;;;;;;;22.35;25.85;97698.13;5003746;28;20036;-58
2022/04/20 10:10:42;;;;;;;58.72;6.35;;;;;;;23.45;24.12;97686.63;5002637;28;20046;-58
2022/04/20 10:13:10;;;;;;;71.43;6.88;;;;;;;21.62;25.44;97688.00;5002003;28;20017;-58
2022/04/20 10:18:21;;;;;;;60.63;6.53;;;;;;;21.95;25.24;97675.25;5000203;28;20462;-57
2022/04/20 10:20:54;;;;;;;64.68;6.22;;;;;;;20.95;25.73;97685.09;4998594;28;20137;-58
2022/04/20 10:23:21;;;;;;;64.57;6.40;;;;;;;22.08;26.98;97674.94;5002828;28;20092;-57
2022/04/20 10:25:50;;;;;;;60.00;6.07;;;;;;;21.08;25.80;97673.38;5001057;28;20496;-58
2022/04/20 10:28:28;;;;;;;48.13;5.28;;;;;;;24.45;25.13;97665.06;5003709;28;20037;-56
2022/04/20 10:31:22;;;;;;;58.03;6.20;;;;;;;22.79;27.01;97653.16;5003552;28;20051;-58
2022/04/20 10:33:48;;;;;;;52.08;5.53;;;;;;;22.73;28.21;97661.72;5001756;28;20030;-57
2022/04/20 10:36:27;;;;;;;49.10;4.95;;;;;;;22.31;27.36;97654.19;5002327;28;20038;-57
2022/04/20 10:39:26;;;;;;;55.03;6.32;;;;;;;21.92;26.67;97651.63;5000750;28;20037;-59
2022/04/20 10:42:17;;;;;;;64.32;7.03;;;;;;;21.47;27.67;97646.94;5000288;28;20042;-58
2022/04/20 10:44:57;;;;;;;67.63;6.72;;;;;;;20.60;27.72;97641.34;5002389;28;20686;-59
2022/04/20 10:47:36;;;;;;;57.10;5.80;;;;;;;21.65;31.17;97642.59;5003920;28;20053;-60
2022/04/20 10:50:20;;;;;;;66.47;6.43;;;;;;;20.41;27.77;97635.94;5005295;28;20044;-59
2022/04/20 10:53:03;;;;;;;66.55;6.85;;;;;;;21.10;27.87;97639.59;5004726;28;20135;-60
2022/04/20 10:55:34;;;;;;;52.30;5.57;;;;;;;22.59;26.54;97630.28;5003624;28;20034;-60
2022/04/20 10:58:22;;;;;;;52.88;6.35;;;;;;;20.04;27.74;97628.53;5003965;28;20145;-60
2022/04/20 11:01:09;;;;;;;64.25;6.40;;;;;;;22.73;27.09;97621.81;5005748;28;20056;-60
2022/04/20 11:03:58;;;;;;;46.45;5.65;;;;;;;20.01;28.27;97612.91;5006051;28;20107;-58
2022/04/20 11:06:28;;;;;;;53.58;6.32;;;;;;;20.36;27.46;97614.31;5004359;28;20030;-59
2022/04/20 11:08:53;;;;;;;69.18;6.57;;;;;;;19.84;28.24;97607.22;5004753;28;20334;-59
2022/04/20 11:20:04;;;;;;;60.08;6.43;;;;;;;19.87;28.30;97595.56;5001836;28;20120;-58
2022/04/20 11:22:29;;;;;;;58.05;6.13;;;;;;;19.16;29.79;97596.16;5005024;28;20049;-59
2022/04/20 11:25:06;;;;;;;86.95;8.43;;;;;;;19.39;29.30;97591.63;5004817;28;20499;-57
2022/04/20 11:27:37;;;;;;;60.13;6.20;;;;;;;20.25;28.18;97593.22;5004193;28;20048;-58
2022/04/20 11:30:07;;;;;;;70.55;6.80;;;;;;;19.41;28.74;97584.38;5004683;28;20022;-58
2022/04/20 11:32:32;;;;;;;63.60;6.30;;;;;;;18.44;30.86;97583.50;5001034;28;20698;-57
2022/04/20 11:35:06;;;;;;;61.40;6.47;;;;;;;18.52;30.24;97581.06;5003329;28;20491;-60
2022/04/20 11:37:33;;;;;;;64.55;6.38;;;;;;;17.60;32.26;97573.25;5005345;28;20103;-58
2022/04/20 11:39:59;;;;;;;69.88;6.72;;;;;;;18.77;31.48;97573.81;5008030;28;20504;-59
2022/04/20 11:42:24;;;;;;;65.40;6.43;;;;;;;19.21;30.13;97566.72;5002370;28;20120;-58
2022/04/20 11:44:50;;;;;;;73.03;7.22;;;;;;;17.92;30.96;97557.63;5003417;28;20040;-58
2022/04/20 11:47:17;;;;;;;71.93;6.97;;;;;;;18.17;30.75;97560.94;5003898;28;20041;-59
2022/04/20 11:49:46;;;;;;;58.17;6.00;;;;;;;18.07;31.87;97567.94;5003520;28;20021;-58
2022/04/20 11:52:14;;;;;;;62.20;6.45;;;;;;;18.40;31.82;97558.31;5002820;28;20103;-59
2022/04/20 11:54:43;;;;;;;55.47;5.93;;;;;;;18.68;32.46;97560.38;5005413;28;20037;-57